createdAt,value
2022-09-21T00:02:09.835Z,7.05
2022-09-21T00:07:15.560Z,7.25
2022-09-21T00:12:20.245Z,6.63
2022-09-21T00:17:24.216Z,6.45
2022-09-21T00:22:30.149Z,6.97
2022-09-21T00:27:34.431Z,6.75
2022-09-21T00:32:40.597Z,6.75
2022-09-21T00:37:45.863Z,8.35
2022-09-21T00:42:51.089Z,7.60
2022-09-21T00:47:55.224Z,6.95
2022-09-21T00:53:01.125Z,5.20
2022-09-21T00:58:10.239Z,6.80
2022-09-21T01:03:15.087Z,7.03
2022-09-21T01:08:21.949Z,7.35
2022-09-21T01:13:41.034Z,5.53
2022-09-21T01:18:53.132Z,5.47
2022-09-21T01:24:44.121Z,4.57
2022-09-21T01:29:53.912Z,5.95
2022-09-21T01:35:05.318Z,6.15
2022-09-21T01:40:18.081Z,5.90
2022-09-21T01:45:32.239Z,6.93
2022-09-21T01:50:43.488Z,6.13
2022-09-21T01:55:52.722Z,8.70
2022-09-21T02:00:59.226Z,6.85
2022-09-21T02:06:04.719Z,5.28
2022-09-21T02:11:11.599Z,4.63
2022-09-21T02:16:36.740Z,6.03
2022-09-21T02:21:55.835Z,6.60
2022-09-21T02:27:07.623Z,3.83
2022-09-21T02:32:24.989Z,4.85
2022-09-21T02:37:38.653Z,4.05
2022-09-21T02:42:46.488Z,5.13
2022-09-21T02:47:57.219Z,4.35
2022-09-21T02:53:03.285Z,4.70
2022-09-21T02:58:11.580Z,6.75
2022-09-21T03:03:23.290Z,4.60
2022-09-21T03:08:26.798Z,7.25
2022-09-21T03:13:30.682Z,6.57
2022-09-21T03:18:36.054Z,5.20
2022-09-21T03:23:39.850Z,5.78
2022-09-21T03:28:43.400Z,5.97
2022-09-21T03:33:48.465Z,4.82
2022-09-21T03:38:52.118Z,4.10
2022-09-21T03:43:55.760Z,5.50
2022-09-21T03:49:01.150Z,4.57
2022-09-21T03:54:05.010Z,5.45
2022-09-21T03:59:13.211Z,4.38
2022-09-21T04:04:19.020Z,4.25
2022-09-21T04:09:22.494Z,5.40
2022-09-21T04:14:26.125Z,4.95
2022-09-21T04:19:31.036Z,6.10
2022-09-21T04:24:34.619Z,5.47
2022-09-21T04:29:39.084Z,4.55
2022-09-21T04:34:43.969Z,5.00
2022-09-21T04:39:47.591Z,4.72
2022-09-21T04:44:51.535Z,5.50
2022-09-21T04:49:56.413Z,3.17
2022-09-21T04:54:59.814Z,3.85
2022-09-21T05:00:04.583Z,4.38
2022-09-21T05:05:10.516Z,3.97
2022-09-21T05:10:14.785Z,4.40
2022-09-21T05:15:18.682Z,5.55
2022-09-21T05:20:23.932Z,6.75
2022-09-21T05:25:27.486Z,3.47
2022-09-21T05:30:32.568Z,3.90
2022-09-21T05:35:44.253Z,3.45
2022-09-21T05:40:50.303Z,7.55
2022-09-21T05:46:03.172Z,6.22
2022-09-21T05:51:24.638Z,4.60
2022-09-21T05:56:47.049Z,4.03
2022-09-21T06:02:05.904Z,2.38
2022-09-21T06:07:10.808Z,3.35
2022-09-21T06:12:14.424Z,3.28
2022-09-21T06:17:18.003Z,4.38
2022-09-21T06:22:23.217Z,3.90
2022-09-21T06:27:26.891Z,2.53
2022-09-21T06:32:30.439Z,5.13
2022-09-21T06:37:35.464Z,7.03
2022-09-21T06:42:38.956Z,6.85
2022-09-21T06:47:48.460Z,3.47
2022-09-21T06:52:53.400Z,5.57
2022-09-21T06:58:02.978Z,4.35
2022-09-21T07:03:06.541Z,3.33
2022-09-21T07:13:35.660Z,4.00
2022-09-21T07:18:43.756Z,4.90
2022-09-21T07:23:49.174Z,4.88
2022-09-21T07:28:52.702Z,6.43
2022-09-21T07:33:59.419Z,5.82
2022-09-21T07:39:05.264Z,3.58
2022-09-21T07:44:08.810Z,5.05
2022-09-21T07:49:13.585Z,12.27
2022-09-21T07:54:18.507Z,14.40
2022-09-21T07:59:22.132Z,5.50
2022-09-21T08:04:25.746Z,8.30
2022-09-21T08:09:30.883Z,7.63
2022-09-21T08:14:34.869Z,6.78
2022-09-21T08:19:38.701Z,5.55
2022-09-21T08:24:44.521Z,8.73
2022-09-21T08:29:48.455Z,5.78
2022-09-21T08:34:52.376Z,8.05
2022-09-21T08:39:57.327Z,6.93
2022-09-21T08:45:10.270Z,9.50
2022-09-21T08:50:37.306Z,7.15
2022-09-21T08:55:42.301Z,7.30
2022-09-21T09:00:45.875Z,10.32
2022-09-21T09:05:56.578Z,10.00
2022-09-21T09:11:21.383Z,12.95
2022-09-21T09:16:36.376Z,12.20
2022-09-21T09:21:43.017Z,22.40
2022-09-21T09:26:55.411Z,17.50
2022-09-21T09:32:00.952Z,12.70
2022-09-21T09:37:14.879Z,13.70
2022-09-21T09:42:55.314Z,14.23
2022-09-21T09:48:27.556Z,19.38
2022-09-21T09:53:32.192Z,17.92
2022-09-21T09:58:46.487Z,14.35
2022-09-21T10:04:08.796Z,11.02
2022-09-21T10:09:28.171Z,14.15
2022-09-21T10:14:36.741Z,15.90
2022-09-21T10:19:40.478Z,15.55
2022-09-21T10:24:52.026Z,11.35
2022-09-21T10:29:57.525Z,12.68
2022-09-21T10:35:21.205Z,12.55
2022-09-21T10:40:30.967Z,11.68
2022-09-21T10:45:38.173Z,10.43
2022-09-21T10:50:45.182Z,13.87
2022-09-21T10:56:14.933Z,9.97
2022-09-21T11:01:25.356Z,11.60
2022-09-21T11:06:38.175Z,11.07
2022-09-21T11:11:54.974Z,9.70
2022-09-21T11:17:14.031Z,7.17
2022-09-21T11:22:36.972Z,6.80
2022-09-21T11:27:45.727Z,6.53
2022-09-21T11:33:23.408Z,8.27
2022-09-21T11:38:49.556Z,6.75
2022-09-21T11:44:17.754Z,5.93
2022-09-21T11:50:26.287Z,6.15
2022-09-21T11:56:27.194Z,8.05
2022-09-21T12:01:54.636Z,8.25
2022-09-21T12:12:25.008Z,5.38
2022-09-21T12:17:46.544Z,7.10
2022-09-21T12:22:59.072Z,6.35
2022-09-21T12:28:11.801Z,11.95
2022-09-21T12:33:26.218Z,10.57
2022-09-21T12:38:36.478Z,7.88
2022-09-21T12:43:46.172Z,8.70
2022-09-21T12:48:50.042Z,7.43
2022-09-21T12:54:00.682Z,10.93
2022-09-21T12:59:27.414Z,10.20
2022-09-21T13:04:45.612Z,9.00
2022-09-21T13:09:52.408Z,8.02
2022-09-21T13:15:06.807Z,5.77
2022-09-21T13:20:20.936Z,5.18
2022-09-21T13:25:29.839Z,5.55
2022-09-21T13:30:45.601Z,7.43
2022-09-21T13:36:12.820Z,6.38
2022-09-21T13:41:51.841Z,5.40
2022-09-21T13:46:58.388Z,5.60
2022-09-21T13:52:07.397Z,5.82
2022-09-21T13:57:25.090Z,6.00
2022-09-21T14:12:52.381Z,3.22
2022-09-21T14:18:48.105Z,4.50
2022-09-21T14:24:22.256Z,5.40
2022-09-21T14:29:38.950Z,6.15
2022-09-21T14:34:47.053Z,7.65
2022-09-21T14:39:51.556Z,5.03
2022-09-21T14:45:02.191Z,7.20
2022-09-21T14:50:33.029Z,5.18
2022-09-21T14:56:10.960Z,5.55
2022-09-21T15:01:38.275Z,10.88
2022-09-21T15:07:07.772Z,5.18
2022-09-21T15:12:21.262Z,4.50
2022-09-21T15:17:30.027Z,6.75
2022-09-21T15:22:33.705Z,5.00
2022-09-21T15:27:38.093Z,5.63
2022-09-21T15:32:46.636Z,4.30
2022-09-21T15:37:52.253Z,4.75
2022-09-21T15:43:06.577Z,4.65
2022-09-21T15:48:13.436Z,3.95
2022-09-21T15:53:24.993Z,2.93
2022-09-21T15:58:37.231Z,3.90
2022-09-21T16:03:43.888Z,7.57
2022-09-21T16:08:47.449Z,7.05
2022-09-21T16:14:18.525Z,7.82
2022-09-21T16:19:43.213Z,9.40
2022-09-21T16:24:52.005Z,9.57
2022-09-21T16:29:58.331Z,7.35
2022-09-21T16:35:29.371Z,5.78
2022-09-21T16:40:32.969Z,9.32
2022-09-21T16:45:36.749Z,6.05
2022-09-21T16:50:43.107Z,20.92
2022-09-21T16:55:48.309Z,23.55
2022-09-21T17:00:56.343Z,20.40
2022-09-21T17:06:01.346Z,19.57
2022-09-21T17:11:05.203Z,13.57
2022-09-21T17:16:10.575Z,17.77
2022-09-21T17:21:16.596Z,15.30
2022-09-21T17:26:21.262Z,14.43
2022-09-21T17:31:28.096Z,20.70
2022-09-21T17:36:33.294Z,14.97
2022-09-21T17:41:51.389Z,17.25
2022-09-21T17:47:02.135Z,13.43
2022-09-21T17:52:34.577Z,10.85
2022-09-21T17:57:59.354Z,13.07
2022-09-21T18:03:04.798Z,11.70
2022-09-21T18:08:11.697Z,11.00
2022-09-21T18:13:33.901Z,8.10
2022-09-21T18:18:50.024Z,10.88
2022-09-21T18:24:17.549Z,9.02
2022-09-21T18:29:40.776Z,8.75
2022-09-21T18:35:27.583Z,9.45
2022-09-21T18:40:42.029Z,8.90
2022-09-21T18:45:53.698Z,6.88
2022-09-21T18:51:11.945Z,7.88
2022-09-21T18:56:18.533Z,6.45
2022-09-21T19:01:23.910Z,7.47
2022-09-21T19:06:45.497Z,5.68
2022-09-21T19:11:59.935Z,10.90
2022-09-21T19:17:23.861Z,6.88
2022-09-21T19:22:38.415Z,5.70
2022-09-21T19:27:51.699Z,6.95
2022-09-21T19:32:58.323Z,6.40
2022-09-21T19:38:04.642Z,5.97
2022-09-21T19:43:30.366Z,5.15
2022-09-21T19:48:44.146Z,4.88
2022-09-21T19:54:14.826Z,5.50
2022-09-21T19:59:38.424Z,5.57
2022-09-21T20:04:51.767Z,4.07
2022-09-21T20:10:38.004Z,5.60
2022-09-21T20:15:51.173Z,6.30
2022-09-21T20:20:57.336Z,4.43
2022-09-21T20:26:08.485Z,4.38
2022-09-21T20:31:13.678Z,7.35
2022-09-21T20:36:17.378Z,4.28
2022-09-21T20:41:24.509Z,4.60
2022-09-21T20:46:29.582Z,7.93
2022-09-21T20:51:34.445Z,7.57
2022-09-21T20:56:37.938Z,7.47
2022-09-21T21:01:42.973Z,7.18
2022-09-21T21:06:46.487Z,4.60
2022-09-21T21:11:50.012Z,8.07
2022-09-21T21:16:55.053Z,6.43
2022-09-21T21:21:58.680Z,5.85
2022-09-21T21:27:03.306Z,8.05
2022-09-21T21:32:08.738Z,6.13
2022-09-21T21:37:14.215Z,6.68
2022-09-21T21:42:19.095Z,6.63
2022-09-21T21:47:40.916Z,7.63
2022-09-21T21:52:45.480Z,4.82
2022-09-21T21:57:49.038Z,8.48
2022-09-21T22:02:56.887Z,3.58
2022-09-21T22:08:00.339Z,6.35
2022-09-21T22:13:04.799Z,5.15
2022-09-21T22:18:09.897Z,8.35
2022-09-21T22:23:14.429Z,4.10
2022-09-21T22:28:18.047Z,4.50
2022-09-21T22:33:23.141Z,5.78
2022-09-21T22:38:29.785Z,4.10
2022-09-21T22:43:34.251Z,5.63
2022-09-21T22:48:39.665Z,3.47
2022-09-21T22:53:44.222Z,5.10
2022-09-21T22:58:50.772Z,5.18
2022-09-21T23:03:59.135Z,6.15
2022-09-21T23:09:06.906Z,6.57
2022-09-21T23:14:12.944Z,5.00
2022-09-21T23:19:17.933Z,6.65
2022-09-21T23:24:22.639Z,3.35
2022-09-21T23:29:26.072Z,3.47
2022-09-21T23:34:30.993Z,3.25
2022-09-21T23:39:34.572Z,4.40
2022-09-21T23:44:38.130Z,4.25
2022-09-21T23:49:43.223Z,3.75
2022-09-21T23:54:46.944Z,6.40
2022-09-21T23:59:52.722Z,3.63
